Time;durP1;ratioP1;P1;durP2;ratioP2;P2;SDS_P1;SDS_P2;PMS_P1;PMS_P2;Temp;Humidity;BMP_temperature;BMP_pressure;BME280_temperature;BME280_humidity;BME280_pressure;Samples;Min_cycle;Max_cycle;Signal;HPM_P1;HPM_P2
2022/10/16 00:00:39;;;;;;;6.25;1.65;;;13.90;99.90;;;;;;5035022;28;20472;-84
2022/10/16 00:03:04;;;;;;;2.60;1.73;;;14.00;99.90;;;;;;5051461;28;20039;-84
2022/10/16 00:05:30;;;;;;;3.40;1.75;;;14.00;99.90;;;;;;5066067;28;20029;-85
2022/10/16 00:07:56;;;;;;;2.65;1.70;;;14.00;99.90;;;;;;5065008;28;20033;-84
2022/10/16 00:10:23;;;;;;;4.32;1.88;;;14.00;99.90;;;;;;5050523;28;20114;-84
2022/10/16 00:12:48;;;;;;;6.20;1.85;;;14.00;99.90;;;;;;5050965;28;20036;-84
2022/10/16 00:15:15;;;;;;;1.65;1.52;;;14.00;99.90;;;;;;5037593;28;20152;-85
2022/10/16 00:17:41;;;;;;;2.63;1.73;;;14.00;99.90;;;;;;5068529;28;20020;-83
2022/10/16 00:20:07;;;;;;;1.92;1.50;;;14.00;99.90;;;;;;5041627;28;20405;-83
2022/10/16 00:22:33;;;;;;;1.65;1.55;;;14.00;99.90;;;;;;5035004;28;20043;-84
2022/10/16 00:24:59;;;;;;;5.68;1.73;;;14.00;99.90;;;;;;5051551;28;20032;-85
2022/10/16 00:27:25;;;;;;;2.53;1.40;;;14.00;99.90;;;;;;5051169;28;20062;-84
2022/10/16 00:29:52;;;;;;;4.95;1.80;;;14.00;99.90;;;;;;5038450;28;20090;-85
2022/10/16 00:32:20;;;;;;;1.42;1.33;;;14.00;99.90;;;;;;5048778;28;20032;-83
2022/10/16 00:34:46;;;;;;;3.75;2.10;;;14.00;99.90;;;;;;5047794;28;20033;-84
2022/10/16 00:37:13;;;;;;;4.45;1.90;;;14.00;99.90;;;;;;5048345;28;20039;-84
2022/10/16 00:39:39;;;;;;;4.70;2.00;;;14.00;99.90;;;;;;5051730;28;20523;-84
2022/10/16 00:42:05;;;;;;;5.55;1.90;;;14.00;99.90;;;;;;5066825;28;20033;-84
2022/10/16 00:44:48;;;;;;;4.38;1.90;;;14.00;99.90;;;;;;5067574;28;20024;-84
2022/10/16 00:47:24;;;;;;;3.17;1.60;;;14.00;99.90;;;;;;5065388;28;20036;-84
2022/10/16 00:49:53;;;;;;;2.20;1.60;;;14.00;99.90;;;;;;5067418;28;20550;-84
2022/10/16 00:52:19;;;;;;;2.30;1.23;;;14.00;99.90;;;;;;5055388;28;20121;-84
2022/10/16 00:54:46;;;;;;;2.53;1.55;;;14.00;99.90;;;;;;5014802;28;20702;-84
2022/10/16 00:57:13;;;;;;;2.08;1.50;;;14.00;99.90;;;;;;5047914;28;20123;-84
2022/10/16 00:59:41;;;;;;;2.88;1.52;;;14.00;99.90;;;;;;5051569;28;20042;-83
2022/10/16 01:02:10;;;;;;;2.58;1.58;;;14.00;99.90;;;;;;5065927;28;20037;-84
2022/10/16 01:04:49;;;;;;;3.33;1.80;;;14.00;99.90;;;;;;5047113;28;20033;-84
2022/10/16 01:07:34;;;;;;;2.08;1.40;;;14.00;99.90;;;;;;5046482;28;20032;-84
2022/10/16 01:10:31;;;;;;;3.55;1.58;;;14.00;99.90;;;;;;5066148;28;20035;-84
2022/10/16 01:13:00;;;;;;;3.53;1.50;;;14.00;99.90;;;;;;5063248;28;20025;-84
2022/10/16 01:15:47;;;;;;;1.90;1.33;;;14.00;99.90;;;;;;5049893;28;20017;-85
2022/10/16 01:18:46;;;;;;;2.00;1.13;;;14.00;99.90;;;;;;5050900;28;20032;-85
2022/10/16 01:21:31;;;;;;;2.17;1.23;;;14.00;99.90;;;;;;5047001;28;20037;-85
2022/10/16 01:24:16;;;;;;;3.45;1.55;;;13.90;99.90;;;;;;5053432;28;20059;-85
2022/10/16 01:26:48;;;;;;;4.88;1.40;;;14.00;99.90;;;;;;5067197;28;20029;-84
2022/10/16 01:29:22;;;;;;;3.35;1.42;;;13.90;99.90;;;;;;5068786;28;20024;-85
2022/10/16 01:31:55;;;;;;;1.87;0.90;;;13.90;99.90;;;;;;5050832;28;20056;-85
2022/10/16 01:34:31;;;;;;;1.45;1.30;;;13.90;99.90;;;;;;5034740;28;20685;-86
2022/10/16 01:37:11;;;;;;;3.20;1.55;;;13.90;99.90;;;;;;5066810;28;20031;-84
2022/10/16 01:39:39;;;;;;;1.30;1.20;;;13.90;99.90;;;;;;5067407;28;20033;-85
2022/10/16 01:42:11;;;;;;;1.27;0.95;;;13.90;99.90;;;;;;5046313;28;20037;-84
2022/10/16 01:44:38;;;;;;;1.25;1.00;;;13.90;99.90;;;;;;5030428;28;20033;-84
2022/10/16 01:47:05;;;;;;;2.03;1.10;;;13.90;99.90;;;;;;5046600;28;20041;-84
2022/10/16 01:49:35;;;;;;;1.08;0.95;;;13.90;99.90;;;;;;5049449;28;20493;-84
2022/10/16 01:52:06;;;;;;;3.05;1.10;;;13.90;99.90;;;;;;5045138;28;20503;-84
2022/10/16 01:54:35;;;;;;;1.17;1.17;;;13.90;99.90;;;;;;5049990;28;20119;-85
2022/10/16 01:57:02;;;;;;;1.55;1.08;;;13.90;99.90;;;;;;5050103;28;20056;-85
2022/10/16 01:59:34;;;;;;;1.10;1.00;;;13.90;99.90;;;;;;5050299;28;20516;-84
2022/10/16 02:02:04;;;;;;;1.13;1.02;;;13.90;99.90;;;;;;5044651;28;20032;-84
2022/10/16 02:04:42;;;;;;;2.55;1.08;;;13.90;99.90;;;;;;5030317;28;20029;-85
2022/10/16 02:07:08;;;;;;;1.48;1.00;;;13.90;99.90;;;;;;5044288;28;20116;-84
2022/10/16 02:09:35;;;;;;;2.38;1.30;;;13.90;99.90;;;;;;5048475;28;20400;-85
2022/10/16 02:12:09;;;;;;;1.58;1.40;;;13.90;99.90;;;;;;5032734;28;20056;-84
2022/10/16 02:14:38;;;;;;;2.08;1.10;;;13.90;99.90;;;;;;5054151;28;20025;-85
2022/10/16 02:17:14;;;;;;;1.45;1.20;;;13.90;99.90;;;;;;5070474;28;20031;-85
2022/10/16 02:19:41;;;;;;;3.08;1.17;;;13.80;99.90;;;;;;5049542;28;20051;-85
2022/10/16 02:22:14;;;;;;;1.42;1.30;;;13.80;99.90;;;;;;5046024;28;20033;-85
2022/10/16 02:24:53;;;;;;;1.30;1.10;;;13.80;99.90;;;;;;5029902;28;20120;-85
2022/10/16 02:27:30;;;;;;;1.42;1.33;;;13.80;99.90;;;;;;5064304;28;20544;-85
2022/10/16 02:30:07;;;;;;;1.20;1.00;;;13.80;99.90;;;;;;5049329;28;20500;-83
2022/10/16 02:32:42;;;;;;;3.42;1.20;;;13.80;99.90;;;;;;5066253;28;20585;-84
2022/10/16 02:35:31;;;;;;;1.33;1.08;;;13.80;99.90;;;;;;5056345;28;20033;-84
2022/10/16 02:37:58;;;;;;;2.78;1.23;;;13.80;99.90;;;;;;5070609;28;20035;-83
2022/10/16 02:40:25;;;;;;;2.58;1.27;;;13.80;99.90;;;;;;5069854;28;20028;-83
2022/10/16 02:42:52;;;;;;;1.17;1.08;;;13.80;99.90;;;;;;5036850;28;20049;-85
2022/10/16 02:45:19;;;;;;;1.45;1.35;;;13.80;99.90;;;;;;5063534;28;20033;-84
2022/10/16 02:47:45;;;;;;;1.10;1.10;;;13.80;99.90;;;;;;5039675;28;20036;-85
2022/10/16 02:50:11;;;;;;;2.95;1.30;;;13.80;99.90;;;;;;5056099;28;20032;-84
2022/10/16 02:52:37;;;;;;;1.73;1.23;;;13.80;99.90;;;;;;5053806;28;20029;-84
2022/10/16 02:55:03;;;;;;;1.60;1.50;;;13.80;99.90;;;;;;5035879;28;20147;-85
2022/10/16 02:57:28;;;;;;;1.35;1.20;;;13.80;99.90;;;;;;5038664;28;20028;-84
2022/10/16 02:59:54;;;;;;;1.10;1.00;;;13.80;99.90;;;;;;5022542;28;20056;-84
2022/10/16 03:02:20;;;;;;;2.03;1.10;;;13.90;99.90;;;;;;5055466;28;20472;-86
2022/10/16 03:04:46;;;;;;;1.95;1.23;;;13.80;99.90;;;;;;5055559;28;20131;-84
2022/10/16 03:07:14;;;;;;;1.38;1.27;;;13.90;99.90;;;;;;5055488;28;20036;-84
2022/10/16 03:09:40;;;;;;;3.58;1.42;;;13.90;99.90;;;;;;5039345;28;20048;-84
2022/10/16 03:12:06;;;;;;;1.63;1.50;;;13.90;99.90;;;;;;5022098;28;20033;-85
2022/10/16 03:14:32;;;;;;;2.80;1.33;;;13.90;99.90;;;;;;5026387;28;20032;-84
2022/10/16 03:16:58;;;;;;;5.00;1.50;;;14.00;99.90;;;;;;5076617;28;20028;-85
2022/10/16 03:19:24;;;;;;;1.48;1.30;;;14.00;99.90;;;;;;5072520;28;20047;-84
2022/10/16 03:21:50;;;;;;;3.28;1.58;;;13.90;99.90;;;;;;5038700;28;20743;-84
2022/10/16 03:24:15;;;;;;;2.97;1.58;;;13.90;99.90;;;;;;5038889;28;20032;-84
2022/10/16 03:26:41;;;;;;;1.88;1.40;;;14.00;99.90;;;;;;5038334;28;20083;-84
2022/10/16 03:29:07;;;;;;;3.05;1.30;;;14.00;99.90;;;;;;5038580;28;20033;-84
2022/10/16 03:31:33;;;;;;;2.30;1.23;;;14.00;99.90;;;;;;5071714;28;20473;-86
2022/10/16 03:33:59;;;;;;;4.93;1.50;;;14.00;99.90;;;;;;5071603;28;20025;-84
2022/10/16 03:36:25;;;;;;;2.08;1.23;;;14.00;99.90;;;;;;5054733;28;20025;-84
2022/10/16 03:38:51;;;;;;;1.50;1.40;;;14.00;99.90;;;;;;5055065;28;20036;-85
2022/10/16 03:41:17;;;;;;;1.23;1.13;;;14.00;99.90;;;;;;5018237;28;20674;-85
2022/10/16 03:43:42;;;;;;;1.45;1.35;;;14.00;99.90;;;;;;5034857;28;20033;-85
2022/10/16 03:46:09;;;;;;;1.63;1.50;;;14.00;99.90;;;;;;5042913;28;20036;-84
2022/10/16 03:48:35;;;;;;;1.48;1.30;;;14.00;99.90;;;;;;5054517;28;20056;-85
2022/10/16 03:51:01;;;;;;;1.98;1.27;;;14.00;99.90;;;;;;5018064;28;20433;-84
2022/10/16 03:53:26;;;;;;;1.42;1.33;;;14.00;99.90;;;;;;5034880;28;20040;-84
2022/10/16 03:55:52;;;;;;;1.90;1.45;;;14.00;99.90;;;;;;5037901;28;20983;-84
2022/10/16 03:58:19;;;;;;;4.13;1.38;;;14.00;99.90;;;;;;5054937;28;20035;-84
2022/10/16 04:00:47;;;;;;;3.22;1.40;;;14.00;99.90;;;;;;5037971;28;20767;-84
2022/10/16 04:03:13;;;;;;;1.30;1.20;;;14.00;99.90;;;;;;5071080;28;20428;-84
2022/10/16 04:05:39;;;;;;;3.42;1.33;;;14.00;99.90;;;;;;5070894;28;20089;-84
2022/10/16 04:08:05;;;;;;;1.25;1.15;;;14.00;99.90;;;;;;5037813;28;20040;-84
2022/10/16 04:10:31;;;;;;;1.50;1.40;;;14.10;99.90;;;;;;5055350;28;20174;-84
2022/10/16 04:12:57;;;;;;;1.60;1.15;;;14.00;99.90;;;;;;5052743;28;20408;-84
2022/10/16 04:15:23;;;;;;;1.58;1.38;;;14.00;99.90;;;;;;5052554;28;20133;-84
2022/10/16 04:17:49;;;;;;;1.75;1.60;;;14.10;99.90;;;;;;5054354;28;20067;-84
2022/10/16 04:20:15;;;;;;;1.60;1.50;;;14.10;99.90;;;;;;5053918;28;20111;-84
2022/10/16 04:22:41;;;;;;;1.42;1.30;;;14.10;99.90;;;;;;5021073;28;20059;-84
2022/10/16 04:25:07;;;;;;;2.53;1.60;;;14.10;99.90;;;;;;5054079;28;20492;-84
2022/10/16 04:27:33;;;;;;;2.35;1.40;;;14.10;99.90;;;;;;5053983;28;20040;-84
2022/10/16 04:30:00;;;;;;;2.30;1.60;;;14.10;99.90;;;;;;5020956;28;20086;-83
2022/10/16 04:32:26;;;;;;;1.40;1.30;;;14.10;99.90;;;;;;5053511;28;20021;-84
2022/10/16 04:34:52;;;;;;;1.40;1.30;;;14.10;99.90;;;;;;5070249;28;20032;-84
2022/10/16 04:37:27;;;;;;;1.40;1.30;;;14.10;99.90;;;;;;5068242;28;20151;-84
2022/10/16 04:39:53;;;;;;;1.40;1.30;;;14.10;99.90;;;;;;5069982;28;20063;-85
2022/10/16 04:42:20;;;;;;;2.45;1.35;;;14.10;99.90;;;;;;5051692;28;20119;-85
2022/10/16 04:44:46;;;;;;;3.83;1.50;;;14.10;99.90;;;;;;5078634;28;20032;-84
2022/10/16 04:47:12;;;;;;;4.72;1.30;;;14.10;99.90;;;;;;5069909;28;20127;-85
2022/10/16 04:49:38;;;;;;;1.70;1.48;;;14.10;99.90;;;;;;5036901;28;20512;-85
2022/10/16 04:52:04;;;;;;;4.22;1.20;;;14.10;99.90;;;;;;5053307;28;20044;-86
2022/10/16 04:54:30;;;;;;;3.17;1.48;;;14.10;99.90;;;;;;5053209;28;20025;-84
2022/10/16 04:56:56;;;;;;;1.38;1.25;;;14.10;99.90;;;;;;5053331;28;20029;-85
2022/10/16 04:59:22;;;;;;;3.85;1.38;;;14.10;99.90;;;;;;5036914;28;20710;-84
2022/10/16 05:01:48;;;;;;;1.50;1.40;;;14.10;99.90;;;;;;5070529;28;20032;-84
2022/10/16 05:04:15;;;;;;;2.75;1.33;;;14.10;99.90;;;;;;5077760;28;20427;-85
2022/10/16 05:06:41;;;;;;;1.85;1.30;;;14.20;99.90;;;;;;5040454;28;20133;-85
2022/10/16 05:09:07;;;;;;;1.60;1.50;;;14.20;99.90;;;;;;5033587;28;20033;-84
2022/10/16 05:11:34;;;;;;;2.13;1.60;;;14.20;99.90;;;;;;5036384;28;20552;-84
2022/10/16 05:14:00;;;;;;;1.30;1.02;;;14.20;99.90;;;;;;5020287;28;20024;-84
2022/10/16 05:16:26;;;;;;;2.00;1.25;;;14.20;99.90;;;;;;5052940;28;20445;-86
2022/10/16 05:18:52;;;;;;;1.42;1.33;;;14.20;99.90;;;;;;5069800;28;20131;-84
2022/10/16 05:21:18;;;;;;;2.85;1.45;;;14.20;99.90;;;;;;5069633;28;20040;-83
2022/10/16 05:23:44;;;;;;;1.55;1.45;;;14.20;99.90;;;;;;5031733;28;20128;-84
2022/10/16 05:26:10;;;;;;;1.65;1.55;;;14.20;99.90;;;;;;5057842;28;20106;-84
2022/10/16 05:28:36;;;;;;;1.42;1.33;;;14.20;99.90;;;;;;5052103;28;20040;-84
2022/10/16 05:31:09;;;;;;;1.25;1.15;;;14.20;99.90;;;;;;5052544;28;20029;-84
2022/10/16 05:33:35;;;;;;;1.55;1.10;;;14.20;99.90;;;;;;5035444;28;20049;-85
2022/10/16 05:36:07;;;;;;;1.67;1.40;;;14.20;99.90;;;;;;5049412;28;20021;-84
2022/10/16 05:38:34;;;;;;;2.70;1.58;;;14.10;99.90;;;;;;5036475;28;20040;-84
2022/10/16 05:41:00;;;;;;;2.58;1.55;;;14.10;99.90;;;;;;5052671;28;20124;-85
2022/10/16 05:43:27;;;;;;;2.60;1.50;;;14.10;99.90;;;;;;5052609;28;20048;-87
2022/10/16 05:46:05;;;;;;;2.47;1.55;;;14.10;99.90;;;;;;5052406;28;20033;-85
2022/10/16 05:48:31;;;;;;;1.67;1.50;;;14.10;99.90;;;;;;5036351;28;20032;-83
2022/10/16 05:51:03;;;;;;;1.80;1.55;;;14.10;99.90;;;;;;5052283;28;20081;-85
2022/10/16 05:53:32;;;;;;;2.70;1.60;;;14.10;99.90;;;;;;5070547;28;20464;-84
2022/10/16 05:55:59;;;;;;;1.58;1.30;;;14.10;99.90;;;;;;5069161;28;20131;-85
2022/10/16 05:58:27;;;;;;;3.00;1.50;;;14.10;99.90;;;;;;5036054;28;20039;-84
2022/10/16 06:00:58;;;;;;;1.38;1.27;;;14.10;99.90;;;;;;5069416;28;20025;-84
2022/10/16 06:03:25;;;;;;;1.45;1.35;;;14.10;99.90;;;;;;5053452;28;20061;-84
2022/10/16 06:05:51;;;;;;;1.42;1.33;;;14.00;99.90;;;;;;5052281;28;20032;-84
2022/10/16 06:08:18;;;;;;;3.30;1.60;;;14.00;99.90;;;;;;5052440;28;20035;-84
2022/10/16 06:10:45;;;;;;;2.83;2.38;;;14.00;99.90;;;;;;5072267;28;20037;-84
2022/10/16 06:13:12;;;;;;;5.68;3.50;;;14.00;99.90;;;;;;5056376;28;20460;-84
2022/10/16 06:15:41;;;;;;;5.07;4.57;;;14.00;99.90;;;;;;5060244;28;20048;-84
2022/10/16 06:18:08;;;;;;;6.22;3.38;;;14.00;99.90;;;;;;5040475;28;20056;-84
2022/10/16 06:20:34;;;;;;;5.05;3.28;;;14.00;99.90;;;;;;5070906;28;20024;-85
2022/10/16 06:23:00;;;;;;;3.10;2.83;;;14.00;99.90;;;;;;5049672;28;20052;-84
2022/10/16 06:25:26;;;;;;;2.70;2.38;;;14.00;99.90;;;;;;5053699;28;20478;-84
2022/10/16 06:27:52;;;;;;;33.20;18.38;;;14.10;99.90;;;;;;5039799;28;20040;-84
2022/10/16 06:30:17;;;;;;;12.60;8.57;;;14.10;99.90;;;;;;5035293;28;20041;-84
2022/10/16 06:32:43;;;;;;;4.75;3.35;;;14.10;99.90;;;;;;5039297;28;20039;-85
2022/10/16 06:35:09;;;;;;;2.03;1.65;;;14.10;99.90;;;;;;5026861;28;20036;-84
2022/10/16 06:37:34;;;;;;;3.00;1.70;;;14.20;99.90;;;;;;5054785;28;20032;-85
2022/10/16 06:40:00;;;;;;;1.45;1.35;;;14.20;99.90;;;;;;5038800;28;20039;-83
2022/10/16 06:42:26;;;;;;;2.70;1.63;;;14.20;99.90;;;;;;5052854;28;20029;-83
2022/10/16 06:44:52;;;;;;;3.63;1.60;;;14.30;99.90;;;;;;5025627;28;20033;-85
2022/10/16 06:47:17;;;;;;;2.63;1.40;;;14.30;99.90;;;;;;5034465;28;20044;-84
2022/10/16 06:49:43;;;;;;;2.45;2.03;;;14.30;99.90;;;;;;5055238;28;20098;-84
2022/10/16 06:52:09;;;;;;;1.80;1.63;;;14.40;99.90;;;;;;5051033;28;20039;-84
2022/10/16 06:54:35;;;;;;;2.45;1.50;;;14.40;99.90;;;;;;5053771;28;20215;-84
2022/10/16 06:57:01;;;;;;;2.03;1.50;;;14.50;99.90;;;;;;5054926;28;20032;-84
2022/10/16 06:59:27;;;;;;;2.45;1.48;;;14.50;99.90;;;;;;5054204;28;20036;-84
2022/10/16 07:01:53;;;;;;;3.25;1.63;;;14.60;99.90;;;;;;5066009;28;20024;-87
2022/10/16 07:04:19;;;;;;;2.25;1.33;;;14.60;99.90;;;;;;5038966;28;20043;-84
2022/10/16 07:06:44;;;;;;;1.67;1.38;;;14.60;99.90;;;;;;5055348;28;20036;-84
2022/10/16 07:09:11;;;;;;;5.18;1.58;;;14.60;99.90;;;;;;5050031;28;20089;-83
2022/10/16 07:11:38;;;;;;;2.03;1.33;;;14.60;99.90;;;;;;5064188;28;20107;-83
2022/10/16 07:14:04;;;;;;;2.33;1.33;;;14.60;99.90;;;;;;5048513;28;20029;-84
2022/10/16 07:16:32;;;;;;;1.70;1.38;;;14.60;99.90;;;;;;5041013;28;20130;-85
2022/10/16 07:19:01;;;;;;;1.92;1.23;;;14.60;99.90;;;;;;5071892;28;20032;-83
2022/10/16 07:21:29;;;;;;;3.88;1.45;;;14.70;99.90;;;;;;5050293;28;20040;-83
2022/10/16 07:23:58;;;;;;;4.90;1.42;;;14.70;99.90;;;;;;5041728;28;20040;-84
2022/10/16 07:26:26;;;;;;;1.40;1.30;;;14.70;99.90;;;;;;5049932;28;20025;-83
2022/10/16 07:28:52;;;;;;;2.90;1.35;;;14.80;99.90;;;;;;5065221;28;20049;-84
2022/10/16 07:31:22;;;;;;;2.10;1.40;;;14.80;99.90;;;;;;5043488;28;20393;-84
2022/10/16 07:33:48;;;;;;;3.38;1.27;;;14.90;99.90;;;;;;5051852;28;20032;-84
2022/10/16 07:36:18;;;;;;;1.75;1.58;;;15.00;99.90;;;;;;5043999;28;20021;-84
2022/10/16 07:38:45;;;;;;;1.73;1.48;;;15.00;99.90;;;;;;5054753;28;20178;-84
2022/10/16 07:41:13;;;;;;;1.77;1.40;;;15.10;99.90;;;;;;5041861;28;20051;-85
2022/10/16 07:43:39;;;;;;;1.58;1.48;;;15.10;99.90;;;;;;5046745;28;20033;-85
2022/10/16 07:46:05;;;;;;;1.33;1.20;;;15.20;99.90;;;;;;5054164;28;20039;-85
2022/10/16 07:48:33;;;;;;;1.40;1.30;;;15.20;99.90;;;;;;5065951;28;20078;-84
2022/10/16 07:51:02;;;;;;;1.77;1.40;;;15.20;99.90;;;;;;5063102;28;20095;-84
2022/10/16 07:53:28;;;;;;;2.08;1.45;;;15.20;99.90;;;;;;5053494;28;20040;-84
2022/10/16 07:56:01;;;;;;;2.17;1.60;;;15.20;99.90;;;;;;5050924;28;20033;-84
2022/10/16 07:58:28;;;;;;;2.03;1.30;;;15.20;99.90;;;;;;5035613;28;20033;-84
2022/10/16 08:00:54;;;;;;;2.60;1.35;;;15.20;99.90;;;;;;5047153;28;20032;-86
2022/10/16 08:03:20;;;;;;;3.80;1.70;;;15.20;99.90;;;;;;5045363;28;20120;-83
2022/10/16 08:05:46;;;;;;;3.28;1.30;;;15.30;99.90;;;;;;5048833;28;20052;-85
2022/10/16 08:08:17;;;;;;;3.15;1.55;;;15.30;99.90;;;;;;5021070;28;20098;-84
2022/10/16 08:10:44;;;;;;;1.40;1.30;;;15.30;99.90;;;;;;5055832;28;20112;-83
2022/10/16 08:13:14;;;;;;;1.63;1.48;;;15.40;99.90;;;;;;5049520;28;20055;-83
2022/10/16 08:15:41;;;;;;;1.90;1.35;;;15.50;99.90;;;;;;5050279;28;20106;-84
2022/10/16 08:18:07;;;;;;;2.92;1.33;;;15.60;99.90;;;;;;5032515;28;20040;-85
2022/10/16 08:20:33;;;;;;;1.88;1.67;;;15.60;99.90;;;;;;5045626;28;20036;-85
2022/10/16 08:23:00;;;;;;;1.73;1.63;;;15.80;99.90;;;;;;5051619;28;20040;-84
2022/10/16 08:25:26;;;;;;;1.48;1.30;;;15.90;99.90;;;;;;5048096;28;20151;-83
2022/10/16 08:27:51;;;;;;;1.40;1.27;;;16.10;99.90;;;;;;5036521;28;20124;-84
2022/10/16 08:30:20;;;;;;;1.35;1.20;;;16.20;99.90;;;;;;5050663;28;20044;-82
2022/10/16 08:32:45;;;;;;;2.17;1.20;;;16.30;99.90;;;;;;5063423;28;20123;-83
2022/10/16 08:35:12;;;;;;;2.17;1.95;;;16.40;99.90;;;;;;5017907;28;20614;-84
2022/10/16 08:37:39;;;;;;;1.60;1.23;;;16.50;99.90;;;;;;5024695;28;20408;-83
2022/10/16 08:40:07;;;;;;;1.30;1.20;;;16.50;99.90;;;;;;5065931;28;20028;-83
2022/10/16 08:42:57;;;;;;;2.28;1.10;;;16.60;99.90;;;;;;5043822;28;20086;-83
2022/10/16 08:45:42;;;;;;;1.00;0.90;;;16.60;99.90;;;;;;5061330;28;20116;-83
2022/10/16 08:48:21;;;;;;;2.67;1.50;;;16.70;99.90;;;;;;5065492;28;20661;-83
2022/10/16 08:50:50;;;;;;;1.65;1.45;;;16.80;99.90;;;;;;5066314;28;20051;-85
2022/10/16 08:53:58;;;;;;;1.10;1.00;;;16.80;99.90;;;;;;5050926;28;20089;-83
2022/10/16 08:56:25;;;;;;;3.17;1.20;;;16.80;99.90;;;;;;5034421;28;20040;-86
2022/10/16 08:58:53;;;;;;;1.67;1.35;;;16.90;99.90;;;;;;5065379;28;20031;-83
2022/10/16 09:01:22;;;;;;;2.85;1.90;;;16.90;99.90;;;;;;5035421;28;20445;-83
2022/10/16 09:04:26;;;;;;;2.55;1.15;;;16.90;99.90;;;;;;5047368;28;20496;-83
2022/10/16 09:07:01;;;;;;;1.60;1.40;;;16.90;99.90;;;;;;5066755;28;20028;-83
2022/10/16 09:09:30;;;;;;;3.00;1.50;;;16.80;99.90;;;;;;5066484;28;20025;-83
2022/10/16 09:12:08;;;;;;;1.20;1.10;;;16.80;99.90;;;;;;5047116;28;20037;-84
2022/10/16 09:14:45;;;;;;;1.48;1.38;;;16.80;99.90;;;;;;5048732;28;20029;-85
2022/10/16 09:17:44;;;;;;;2.08;1.40;;;16.80;99.90;;;;;;5063277;28;20071;-84
2022/10/16 09:20:34;;;;;;;1.52;1.30;;;16.80;99.90;;;;;;5048188;28;20068;-84
2022/10/16 09:23:16;;;;;;;1.25;1.15;;;16.80;99.90;;;;;;5048292;28;20066;-83
2022/10/16 09:25:44;;;;;;;1.52;1.40;;;16.90;99.90;;;;;;5044765;28;20082;-84
2022/10/16 09:28:11;;;;;;;4.13;1.42;;;16.80;99.90;;;;;;5049228;28;20037;-84
2022/10/16 09:30:39;;;;;;;1.98;1.27;;;16.90;99.90;;;;;;5047275;28;20037;-84
2022/10/16 09:33:07;;;;;;;4.38;2.28;;;17.00;99.90;;;;;;5019579;28;20075;-88
2022/10/16 09:35:48;;;;;;;1.60;1.50;;;17.00;99.90;;;;;;5048106;28;20124;-87
2022/10/16 09:38:23;;;;;;;3.20;1.65;;;17.10;99.90;;;;;;5069356;28;20028;-84
2022/10/16 09:40:49;;;;;;;4.07;1.60;;;17.20;99.90;;;;;;5063002;28;20020;-84
2022/10/16 09:43:24;;;;;;;1.65;1.33;;;17.30;99.90;;;;;;5050969;28;20397;-84
2022/10/16 09:46:00;;;;;;;2.08;1.60;;;17.40;99.90;;;;;;5027743;28;20028;-84
2022/10/16 09:48:44;;;;;;;2.28;1.58;;;17.50;99.90;;;;;;5080525;28;20036;-84
2022/10/16 09:51:28;;;;;;;1.75;1.10;;;17.60;99.90;;;;;;5035743;28;20120;-85
2022/10/16 09:53:56;;;;;;;2.50;1.05;;;17.60;99.90;;;;;;5063850;28;20098;-84
2022/10/16 09:56:25;;;;;;;1.70;0.88;;;17.70;99.90;;;;;;5041853;28;20029;-85
2022/10/16 09:58:54;;;;;;;3.25;1.20;;;17.80;99.90;;;;;;5044634;28;20037;-85
2022/10/16 10:01:23;;;;;;;5.07;2.10;;;17.80;99.90;;;;;;5036395;28;20504;-84
2022/10/16 10:03:52;;;;;;;1.30;1.05;;;17.80;99.90;;;;;;5042398;28;20028;-84
2022/10/16 10:06:23;;;;;;;3.13;1.25;;;17.90;99.90;;;;;;5068131;28;20131;-85
2022/10/16 10:09:21;;;;;;;2.35;1.20;;;17.90;99.90;;;;;;5060959;28;20029;-85
2022/10/16 10:11:50;;;;;;;3.08;1.00;;;17.90;99.90;;;;;;5048132;28;20470;-84
2022/10/16 10:14:24;;;;;;;2.72;1.10;;;17.90;99.90;;;;;;5062364;28;20025;-85
2022/10/16 10:16:52;;;;;;;1.45;1.13;;;17.90;99.90;;;;;;5053016;28;20035;-85
2022/10/16 10:19:20;;;;;;;2.22;1.27;;;17.90;99.90;;;;;;5050736;28;20029;-86
2022/10/16 10:21:47;;;;;;;2.75;1.10;;;17.90;99.90;;;;;;5045175;28;20029;-85
2022/10/16 10:24:16;;;;;;;5.10;1.40;;;17.90;99.90;;;;;;5043671;28;20082;-86
2022/10/16 10:26:57;;;;;;;0.80;0.80;;;17.90;99.90;;;;;;5048862;28;20115;-87
2022/10/16 10:29:54;;;;;;;2.30;1.15;;;17.90;99.90;;;;;;5059614;28;20396;-85
2022/10/16 10:32:28;;;;;;;2.03;0.95;;;18.00;99.90;;;;;;5049251;28;20047;-86
2022/10/16 10:35:08;;;;;;;0.88;0.88;;;18.00;99.90;;;;;;5071167;28;20032;-87
2022/10/16 10:37:55;;;;;;;1.48;1.27;;;18.00;99.90;;;;;;5064935;28;20501;-86
2022/10/16 10:40:44;;;;;;;1.48;1.02;;;18.00;99.90;;;;;;5073352;28;20640;-86
2022/10/16 10:43:43;;;;;;;1.55;1.10;;;18.00;99.90;;;;;;5067707;28;20028;-86
2022/10/16 10:46:21;;;;;;;1.20;1.10;;;18.10;99.90;;;;;;5069537;28;20039;-86
2022/10/16 10:49:17;;;;;;;0.90;0.90;;;18.10;99.90;;;;;;5063633;28;20025;-87
2022/10/16 10:51:46;;;;;;;;;;;18.20;99.90;;;;;;5042979;28;20500;-87
2022/10/16 10:54:35;;;;;;;0.95;0.88;;;18.30;99.90;;;;;;5050161;28;19908;-88
2022/10/16 10:57:12;;;;;;;1.30;1.20;;;18.30;99.90;;;;;;5051070;28;20649;-86
2022/10/16 11:00:07;;;;;;;1.42;0.93;;;18.30;99.90;;;;;;5068918;28;20071;-88
2022/10/16 11:03:03;;;;;;;1.55;1.00;;;18.40;99.90;;;;;;5052386;28;20542;-86
2022/10/16 11:05:34;;;;;;;2.67;1.25;;;18.30;99.90;;;;;;5053000;28;20032;-87
2022/10/16 11:08:07;;;;;;;2.38;1.10;;;18.30;99.90;;;;;;5050379;28;20040;-86
2022/10/16 11:10:44;;;;;;;3.22;1.70;;;18.30;99.90;;;;;;5025926;28;20065;-86
2022/10/16 11:13:26;;;;;;;1.48;1.08;;;18.40;99.90;;;;;;5068682;28;20070;-86
2022/10/16 11:15:56;;;;;;;2.67;1.25;;;18.40;99.90;;;;;;5052552;28;20396;-86
2022/10/16 11:18:51;;;;;;;1.00;0.93;;;18.50;99.90;;;;;;5045730;28;20043;-86
2022/10/16 11:21:20;;;;;;;1.20;1.10;;;18.50;99.90;;;;;;5063169;28;20040;-86
2022/10/16 11:24:05;;;;;;;3.65;1.02;;;18.60;99.90;;;;;;5065191;28;20031;-86
2022/10/16 11:26:38;;;;;;;2.15;1.25;;;18.60;99.90;;;;;;5067516;28;20032;-86
2022/10/16 11:29:12;;;;;;;1.83;1.13;;;18.70;99.90;;;;;;5032801;28;20040;-86
2022/10/16 11:31:39;;;;;;;1.38;0.80;;;18.60;99.90;;;;;;5041194;28;20025;-86
2022/10/16 11:34:15;;;;;;;2.00;0.80;;;18.60;99.90;;;;;;5064322;28;20481;-86
2022/10/16 11:37:03;;;;;;;1.13;1.00;;;18.70;99.90;;;;;;5064036;28;20033;-86
2022/10/16 11:39:30;;;;;;;2.05;1.00;;;18.70;99.90;;;;;;5067886;28;20075;-86
2022/10/16 11:42:16;;;;;;;1.15;0.90;;;18.70;99.90;;;;;;5028640;28;20035;-87
2022/10/16 11:44:48;;;;;;;;;;;18.60;99.90;;;;;;5048718;28;20139;-87
2022/10/16 11:47:20;;;;;;;1.67;1.10;;;18.60;99.90;;;;;;5065665;28;19962;-86
2022/10/16 11:49:49;;;;;;;3.53;1.08;;;18.50;99.90;;;;;;5065633;28;20478;-86
2022/10/16 11:52:34;;;;;;;1.50;1.00;;;18.50;99.90;;;;;;5052640;28;20493;-86
2022/10/16 11:55:16;;;;;;;2.33;1.05;;;18.50;99.90;;;;;;5068347;28;20111;-87
2022/10/16 11:58:09;;;;;;;1.95;1.10;;;18.50;99.90;;;;;;5051968;28;20047;-87
2022/10/16 12:00:55;;;;;;;2.20;1.02;;;18.50;99.90;;;;;;5045418;28;20033;-87
2022/10/16 12:03:48;;;;;;;1.10;0.93;;;18.40;99.90;;;;;;5052839;28;20040;-88
2022/10/16 12:06:38;;;;;;;1.80;1.10;;;18.50;99.90;;;;;;5073495;28;20064;-86
2022/10/16 12:09:04;;;;;;;3.00;1.23;;;18.60;99.90;;;;;;5061950;28;20056;-86
2022/10/16 12:11:38;;;;;;;2.47;1.00;;;18.60;99.90;;;;;;5053867;28;20071;-87
2022/10/16 12:14:12;;;;;;;1.27;1.10;;;18.50;99.90;;;;;;5042532;28;20028;-87
2022/10/16 12:16:50;;;;;;;1.30;0.93;;;18.60;99.90;;;;;;5049006;28;20029;-87
2022/10/16 12:19:20;;;;;;;2.13;1.17;;;18.70;99.90;;;;;;5056890;28;20035;-88
2022/10/16 12:21:47;;;;;;;1.65;1.02;;;18.80;99.90;;;;;;5050800;28;20033;-87
2022/10/16 12:24:27;;;;;;;5.55;0.90;;;18.90;99.90;;;;;;5031889;28;20044;-87
2022/10/16 12:26:53;;;;;;;3.70;1.02;;;18.90;99.90;;;;;;5048861;28;20037;-87
2022/10/16 12:29:23;;;;;;;1.00;0.88;;;19.00;99.90;;;;;;5065227;28;20036;-89
2022/10/16 12:31:50;;;;;;;6.45;1.40;;;18.90;99.90;;;;;;5070023;28;20016;-87
2022/10/16 12:34:23;;;;;;;4.57;1.05;;;18.80;99.90;;;;;;5072173;28;20035;-86
2022/10/16 12:36:49;;;;;;;8.40;1.23;;;18.70;99.90;;;;;;5069728;28;20135;-86
2022/10/16 12:39:24;;;;;;;6.32;1.20;;;18.50;99.90;;;;;;5042639;28;20039;-87
2022/10/16 12:42:25;;;;;;;2.72;1.27;;;18.40;99.90;;;;;;5045627;28;20028;-85
2022/10/16 12:44:52;;;;;;;2.92;1.20;;;18.20;99.90;;;;;;5024983;28;20761;-84
2022/10/16 12:47:37;;;;;;;1.73;1.20;;;18.10;99.90;;;;;;5047894;28;20052;-85
2022/10/16 12:50:22;;;;;;;2.97;1.60;;;18.00;99.90;;;;;;5049763;28;20115;-85
2022/10/16 12:52:48;;;;;;;1.80;1.33;;;18.00;99.90;;;;;;5057722;28;20029;-86
2022/10/16 12:55:19;;;;;;;3.53;1.60;;;18.00;99.90;;;;;;5030542;28;20029;-85
2022/10/16 12:57:57;;;;;;;2.25;2.00;;;18.00;99.90;;;;;;5025737;28;20619;-86
2022/10/16 13:00:37;;;;;;;2.55;1.50;;;18.10;99.90;;;;;;5055977;28;20496;-85
2022/10/16 13:03:41;;;;;;;2.33;1.60;;;18.10;99.90;;;;;;5063226;28;20024;-85
2022/10/16 13:06:31;;;;;;;2.35;1.58;;;18.20;99.90;;;;;;5066579;28;20037;-89
2022/10/16 13:09:32;;;;;;;2.53;1.38;;;18.20;99.90;;;;;;5057239;28;20465;-86